Time;durP1;ratioP1;P1;durP2;ratioP2;P2;SDS_P1;SDS_P2;PMS_P1;PMS_P2;Temp;Humidity;BMP_temperature;BMP_pressure;BME280_temperature;BME280_humidity;BME280_pressure;Samples;Min_cycle;Max_cycle;Signal;HPM_P1;HPM_P2
2021/05/07 00:01:57;;;;;;;5.57;2.70;;;;;;;8.92;68.89;97433.30;125797;1096;26210;-78
2021/05/07 00:04:24;;;;;;;5.40;2.70;;;;;;;8.94;68.82;97433.84;125786;1097;26947;-78
2021/05/07 00:06:52;;;;;;;4.77;2.60;;;;;;;8.95;68.85;97424.64;125811;1104;22774;-78
2021/05/07 00:09:19;;;;;;;6.90;3.43;;;;;;;8.95;69.49;97431.97;126007;1101;22845;-78
2021/05/07 00:11:47;;;;;;;8.00;3.60;;;;;;;8.93;70.01;97430.33;126054;1101;22752;-78
2021/05/07 00:14:14;;;;;;;4.85;2.80;;;;;;;8.89;70.96;97425.69;125836;1102;22738;-78
2021/05/07 00:16:42;;;;;;;7.20;2.90;;;;;;;8.88;71.17;97424.04;126087;1096;25251;-78
2021/05/07 00:19:09;;;;;;;4.90;2.77;;;;;;;8.89;71.04;97425.69;126050;1096;27311;-78
2021/05/07 00:21:38;;;;;;;6.40;2.90;;;;;;;8.90;71.52;97425.41;125940;1096;25976;-78
2021/05/07 00:24:06;;;;;;;4.40;2.50;;;;;;;8.89;72.29;97426.50;125888;1102;22772;-78
2021/05/07 00:26:33;;;;;;;7.10;2.17;;;;;;;8.87;71.97;97408.81;125844;1101;22761;-78
2021/05/07 00:29:00;;;;;;;4.60;2.00;;;;;;;8.84;72.18;97414.79;125923;1101;22746;-78
2021/05/07 00:31:27;;;;;;;2.73;1.83;;;;;;;8.77;72.84;97412.28;126122;1101;22743;-78
2021/05/07 00:33:55;;;;;;;4.13;1.90;;;;;;;8.73;72.67;97420.13;126107;1101;22777;-78
2021/05/07 00:36:22;;;;;;;3.50;2.13;;;;;;;8.75;73.42;97414.45;125821;1096;26207;-78
2021/05/07 00:38:49;;;;;;;3.30;2.10;;;;;;;8.77;74.09;97403.33;125777;1102;22753;-78
2021/05/07 00:41:17;;;;;;;5.07;2.00;;;;;;;8.73;73.97;97401.13;126096;1096;27294;-78
2021/05/07 00:43:44;;;;;;;3.00;2.05;;;;;;;8.66;74.01;97403.24;126178;1101;22762;-78
2021/05/07 00:46:11;;;;;;;3.60;2.30;;;;;;;8.59;74.60;97402.64;126116;1101;22788;-79
2021/05/07 00:48:39;;;;;;;4.13;2.13;;;;;;;8.51;74.83;97390.34;125859;1101;22737;-79
2021/05/07 00:51:07;;;;;;;3.40;2.40;;;;;;;8.49;75.01;97388.98;126202;1101;22893;-79
2021/05/07 00:53:35;;;;;;;5.47;3.20;;;;;;;8.50;74.96;97379.78;125929;1104;22774;-79
2021/05/07 00:56:02;;;;;;;8.15;3.60;;;;;;;8.47;75.78;97377.57;125892;1103;22764;-79
2021/05/07 00:58:31;;;;;;;8.53;3.70;;;;;;;8.45;75.86;97385.16;125842;1102;22751;-79
2021/05/07 01:00:58;;;;;;;4.80;3.00;;;;;;;8.40;75.85;97388.59;126117;1096;22745;-79
2021/05/07 01:03:26;;;;;;;6.95;3.35;;;;;;;8.36;75.60;97384.77;126059;1101;22765;-81
2021/05/07 01:05:54;;;;;;;4.23;3.23;;;;;;;8.33;76.09;97374.42;125922;1101;22797;-79
2021/05/07 01:08:22;;;;;;;5.50;3.70;;;;;;;8.27;76.09;97368.14;125907;1096;22762;-79
2021/05/07 01:10:56;;;;;;;5.40;3.13;;;;;;;8.23;76.98;97364.28;126116;1101;22761;-79
2021/05/07 01:13:23;;;;;;;3.45;2.65;;;;;;;8.21;76.83;97362.92;126126;1101;22746;-79
2021/05/07 01:15:54;;;;;;;6.00;3.30;;;;;;;8.15;76.76;97349.31;126049;1101;22744;-79
2021/05/07 01:18:24;;;;;;;3.77;2.57;;;;;;;8.15;77.53;97351.20;125810;1102;22741;-79
2021/05/07 01:20:51;;;;;;;4.90;2.87;;;;;;;8.15;77.67;97349.31;125851;1102;22722;-78
2021/05/07 01:23:19;;;;;;;4.40;3.00;;;;;;;8.12;77.52;97347.10;126037;1101;22904;-79
2021/05/07 01:25:46;;;;;;;3.70;2.80;;;;;;;8.09;78.80;97333.23;126144;1101;22901;-79
2021/05/07 01:28:14;;;;;;;5.17;3.67;;;;;;;8.05;78.23;97337.55;126108;1096;25182;-79
2021/05/07 01:30:48;;;;;;;5.90;2.80;;;;;;;8.02;78.56;97338.05;126098;1101;22730;-79
2021/05/07 01:33:23;;;;;;;7.90;3.20;;;;;;;8.01;79.06;97331.02;125825;1102;22738;-79
2021/05/07 01:35:51;;;;;;;7.20;3.30;;;;;;;7.99;79.01;97336.69;126109;1095;27148;-78
2021/05/07 01:38:20;;;;;;;;;;;;;;;7.95;79.21;97327.41;126126;1101;22754;-78
2021/05/07 01:40:50;;;;;;;3.37;2.60;;;;;;;7.94;79.66;97317.66;126121;1101;21461;-78
2021/05/07 01:43:20;;;;;;;4.00;2.90;;;;;;;7.94;79.12;97314.95;126057;1101;22910;-78
2021/05/07 01:45:50;;;;;;;4.80;2.80;;;;;;;7.90;79.34;97319.25;126054;1101;22759;-79
2021/05/07 01:48:19;;;;;;;4.33;3.00;;;;;;;7.88;79.18;97307.82;126127;1096;22761;-78
2021/05/07 01:50:48;;;;;;;4.87;2.90;;;;;;;7.85;79.72;97308.36;126176;1096;26184;-78
2021/05/07 01:53:16;;;;;;;4.38;3.00;;;;;;;7.82;79.53;97306.15;126148;1101;22793;-78
2021/05/07 01:55:46;;;;;;;5.63;3.60;;;;;;;7.79;79.99;97297.45;126152;1101;22806;-79
2021/05/07 01:58:17;;;;;;;4.30;3.30;;;;;;;7.79;80.16;97297.45;125849;1102;22728;-78
2021/05/07 02:00:46;;;;;;;6.60;4.13;;;;;;;7.82;80.33;97301.53;126105;1101;22735;-78
2021/05/07 02:03:13;;;;;;;6.65;4.15;;;;;;;7.87;80.58;97293.46;126074;1097;27148;-78
2021/05/07 02:06:03;;;;;;;7.70;5.55;;;;;;;7.87;80.26;97284.52;126129;1101;22730;-78
2021/05/07 02:08:30;;;;;;;8.15;5.75;;;;;;;7.85;80.94;97283.96;126094;1101;22931;-78
2021/05/07 02:10:57;;;;;;;7.95;5.05;;;;;;;7.85;81.15;97281.25;126081;1101;22738;-78
2021/05/07 02:13:24;;;;;;;9.20;5.13;;;;;;;7.86;80.81;97281.00;126036;1096;25861;-78
2021/05/07 02:15:53;;;;;;;10.08;5.85;;;;;;;7.86;80.47;97274.73;126080;1101;22829;-78
2021/05/07 02:18:25;;;;;;;10.15;5.95;;;;;;;7.84;81.05;97274.18;126066;1101;22758;-78
2021/05/07 02:20:54;;;;;;;10.55;5.85;;;;;;;7.85;81.09;97273.13;126037;1101;22900;-78
2021/05/07 02:23:23;;;;;;;7.60;5.00;;;;;;;7.87;80.84;97269.06;126086;1101;23174;-78
2021/05/07 02:25:50;;;;;;;9.00;4.80;;;;;;;7.92;81.19;97266.41;126070;1101;22747;-78
2021/05/07 02:28:24;;;;;;;7.75;4.90;;;;;;;7.91;81.09;97263.95;126075;1101;22731;-78
2021/05/07 02:30:51;;;;;;;9.80;5.07;;;;;;;7.90;80.77;97263.14;126102;1101;22938;-78
2021/05/07 02:33:18;;;;;;;7.80;4.30;;;;;;;7.95;80.90;97262.34;125777;1101;22798;-78
2021/05/07 02:35:46;;;;;;;10.55;4.75;;;;;;;7.97;80.28;97273.78;126050;1101;22722;-78
2021/05/07 02:38:14;;;;;;;7.27;4.80;;;;;;;8.04;80.71;97268.95;126083;1101;22731;-78
2021/05/07 02:40:42;;;;;;;10.20;4.30;;;;;;;8.03;80.42;97250.23;126166;1101;22871;-78
2021/05/07 02:43:10;;;;;;;7.73;4.67;;;;;;;8.05;81.00;97254.31;126109;1096;22762;-78
2021/05/07 02:45:38;;;;;;;8.05;4.90;;;;;;;8.07;80.59;97248.63;126095;1096;22754;-78
2021/05/07 02:48:05;;;;;;;8.83;4.53;;;;;;;8.08;80.74;97244.86;126064;1097;26185;-78
2021/05/07 02:50:34;;;;;;;8.67;5.13;;;;;;;8.08;80.51;97239.44;126116;1101;22777;-78
2021/05/07 02:53:01;;;;;;;7.63;4.23;;;;;;;8.08;80.70;97237.53;126101;1101;22762;-78
2021/05/07 02:55:30;;;;;;;11.18;6.58;;;;;;;8.07;80.30;97233.17;126057;1101;22755;-78
2021/05/07 02:57:58;;;;;;;9.03;6.07;;;;;;;8.07;80.94;97232.36;126156;1101;22762;-78
2021/05/07 03:00:25;;;;;;;10.75;6.10;;;;;;;8.12;81.12;97230.50;126082;1096;26457;-78
2021/05/07 03:02:52;;;;;;;10.43;5.77;;;;;;;8.13;81.32;97232.16;125859;1101;22903;-78
2021/05/07 03:05:19;;;;;;;9.95;5.60;;;;;;;8.15;80.84;97229.99;126132;1101;22758;-78
2021/05/07 03:07:46;;;;;;;9.93;6.07;;;;;;;8.17;80.42;97233.25;126059;1101;22765;-78
2021/05/07 03:10:13;;;;;;;10.90;6.50;;;;;;;8.19;80.12;97219.44;126057;1101;24390;-78
2021/05/07 03:12:40;;;;;;;9.77;5.97;;;;;;;8.14;80.78;97195.84;126090;1101;22762;-78
2021/05/07 03:15:08;;;;;;;9.97;6.60;;;;;;;8.12;80.35;97195.25;125813;1096;27478;-78
2021/05/07 03:17:36;;;;;;;9.25;5.30;;;;;;;8.13;81.11;97202.33;125851;1102;22755;-78
2021/05/07 03:20:05;;;;;;;7.65;5.15;;;;;;;8.10;79.87;97210.16;126027;1101;22906;-78
2021/05/07 03:22:32;;;;;;;5.75;5.05;;;;;;;8.05;80.05;97202.80;125853;1101;22815;-78
2021/05/07 03:24:59;;;;;;;6.43;4.77;;;;;;;8.05;80.56;97212.83;125822;1096;27134;-78
2021/05/07 03:27:27;;;;;;;4.85;3.70;;;;;;;8.01;80.67;97209.82;126122;1101;22907;-78
2021/05/07 03:29:54;;;;;;;7.50;3.78;;;;;;;8.00;80.96;97216.30;126072;1101;22755;-78
2021/05/07 03:32:21;;;;;;;4.37;3.17;;;;;;;8.00;80.30;97205.46;126070;1101;22738;-78
2021/05/07 03:34:49;;;;;;;4.05;3.30;;;;;;;8.01;80.46;97211.72;125828;1101;22734;-78
2021/05/07 03:37:17;;;;;;;8.20;3.27;;;;;;;8.03;80.85;97213.09;126053;1096;27336;-78
2021/05/07 03:39:45;;;;;;;5.63;3.07;;;;;;;8.02;80.61;97211.47;126139;1096;25858;-78
2021/05/07 03:42:12;;;;;;;8.20;3.00;;;;;;;8.03;80.85;97212.28;125844;1101;24432;-78
2021/05/07 03:44:39;;;;;;;5.70;2.60;;;;;;;8.03;80.51;97207.66;126054;1101;22799;-78
2021/05/07 03:47:06;;;;;;;6.05;2.90;;;;;;;8.04;80.98;97212.02;126022;1096;27294;-78
2021/05/07 03:49:33;;;;;;;4.45;2.65;;;;;;;8.08;81.08;97206.89;125810;1101;22765;-78
2021/05/07 03:52:01;;;;;;;5.80;3.00;;;;;;;8.09;80.91;97209.35;126067;1096;25976;-78
2021/05/07 03:54:29;;;;;;;4.03;2.70;;;;;;;8.08;81.13;97210.41;126084;1101;22787;-78
2021/05/07 03:56:56;;;;;;;4.05;2.60;;;;;;;8.08;81.16;97210.41;125926;1102;22744;-78
2021/05/07 03:59:23;;;;;;;5.23;2.97;;;;;;;8.08;81.26;97212.32;125832;1101;24277;-78
2021/05/07 04:01:50;;;;;;;4.60;2.60;;;;;;;8.08;80.63;97202.28;126044;1101;22744;-78
2021/05/07 04:04:18;;;;;;;4.23;2.80;;;;;;;8.10;80.93;97210.97;125783;1096;22743;-78
2021/05/07 04:06:46;;;;;;;4.70;2.73;;;;;;;8.11;81.15;97217.20;125848;1101;22916;-78
2021/05/07 04:09:16;;;;;;;5.13;2.77;;;;;;;8.13;81.29;97212.36;126080;1101;22935;-78
2021/05/07 04:14:15;;;;;;;5.20;3.33;;;;;;;8.20;81.00;97209.41;126101;1101;22748;-78
2021/05/07 04:16:42;;;;;;;4.15;3.00;;;;;;;8.26;80.92;97202.95;126098;1096;22745;-78
2021/05/07 04:19:10;;;;;;;4.40;2.60;;;;;;;8.33;80.65;97219.81;125832;1096;22754;-78
2021/05/07 04:21:37;;;;;;;3.30;2.40;;;;;;;8.39;80.84;97212.52;125862;1101;23035;-78
2021/05/07 04:24:05;;;;;;;4.20;3.00;;;;;;;8.44;81.16;97218.82;126058;1101;22916;-78
2021/05/07 04:26:32;;;;;;;3.70;2.77;;;;;;;8.49;81.10;97218.86;126126;1096;26207;-78
2021/05/07 04:29:00;;;;;;;3.87;2.70;;;;;;;8.54;80.81;97213.47;126107;1096;26286;-78
2021/05/07 04:31:27;;;;;;;3.65;2.70;;;;;;;8.59;81.20;97218.11;126033;1096;22750;-78
2021/05/07 04:33:54;;;;;;;5.00;2.90;;;;;;;8.65;80.05;97224.38;125810;1103;22765;-78
2021/05/07 04:36:21;;;;;;;6.37;3.30;;;;;;;8.71;80.79;97226.03;125887;1102;22765;-78
2021/05/07 04:38:48;;;;;;;3.77;3.00;;;;;;;8.73;80.41;97223.89;125860;1103;23564;-78
2021/05/07 04:41:15;;;;;;;3.47;2.20;;;;;;;8.76;80.17;97231.48;125837;1096;26216;-78
2021/05/07 04:43:42;;;;;;;5.87;3.23;;;;;;;8.82;80.73;97226.89;126048;1096;22803;-78
2021/05/07 04:46:09;;;;;;;6.10;4.60;;;;;;;8.89;79.96;97224.78;125804;1101;22780;-78
2021/05/07 04:48:36;;;;;;;8.00;5.73;;;;;;;8.87;81.00;97230.48;126113;1101;24380;-78
2021/05/07 04:51:03;;;;;;;9.45;6.00;;;;;;;8.81;80.40;97228.80;126091;1101;22865;-78
2021/05/07 04:53:30;;;;;;;9.33;5.90;;;;;;;8.81;81.35;97228.80;125905;1096;26263;-78
2021/05/07 04:55:57;;;;;;;10.70;5.80;;;;;;;8.80;80.73;97231.78;125811;1101;22776;-78
2021/05/07 04:58:24;;;;;;;9.77;6.97;;;;;;;8.76;80.28;97228.77;126041;1101;22743;-78
2021/05/07 05:00:51;;;;;;;13.95;8.10;;;;;;;8.74;81.23;97231.75;125889;1101;22768;-78
2021/05/07 05:03:18;;;;;;;11.37;6.60;;;;;;;8.73;81.43;97229.32;125816;1101;22803;-78
2021/05/07 05:05:45;;;;;;;8.07;5.80;;;;;;;8.71;81.12;97228.74;125868;1101;22913;-78
2021/05/07 05:08:12;;;;;;;6.85;4.60;;;;;;;8.73;80.69;97234.75;125928;1096;25884;-78
2021/05/07 05:10:39;;;;;;;7.60;5.13;;;;;;;8.80;81.36;97237.20;126097;1101;22748;-78
2021/05/07 05:13:06;;;;;;;15.63;11.10;;;;;;;8.88;80.22;97237.52;125884;1101;22913;-78
2021/05/07 05:15:34;;;;;;;7.05;4.80;;;;;;;8.95;80.42;97241.91;126104;1096;22762;-78
2021/05/07 05:18:01;;;;;;;9.23;5.40;;;;;;;8.95;80.13;97247.34;125838;1102;22775;-78
2021/05/07 05:20:28;;;;;;;7.15;4.50;;;;;;;8.99;79.37;97248.44;125826;1101;22740;-78
2021/05/07 05:22:55;;;;;;;6.33;4.90;;;;;;;9.04;79.89;97246.55;125899;1102;22743;-78
2021/05/07 05:25:22;;;;;;;8.30;5.50;;;;;;;9.15;80.53;97241.98;125795;1102;22747;-78
2021/05/07 05:27:49;;;;;;;7.67;5.47;;;;;;;9.31;79.89;97235.53;126077;1101;24379;-78
2021/05/07 05:30:18;;;;;;;9.75;4.75;;;;;;;9.45;79.53;97226.86;126202;1101;22747;-78
2021/05/07 05:32:45;;;;;;;10.07;5.17;;;;;;;9.56;79.25;97219.55;125942;1101;23954;-78
2021/05/07 05:35:12;;;;;;;8.30;4.45;;;;;;;9.65;78.67;97216.05;125896;1101;22819;-78
2021/05/07 05:37:40;;;;;;;5.70;3.90;;;;;;;9.73;78.29;97219.31;126035;1096;22741;-78
2021/05/07 05:40:08;;;;;;;8.50;4.50;;;;;;;9.79;78.04;97218.22;126121;1101;22768;-78
2021/05/07 05:42:35;;;;;;;5.05;3.30;;;;;;;9.80;77.43;97212.52;126189;1096;26216;-78
2021/05/07 05:45:02;;;;;;;4.30;3.70;;;;;;;9.88;77.00;97209.27;125852;1102;22741;-78
2021/05/07 05:47:29;;;;;;;8.75;4.90;;;;;;;9.93;77.01;97208.44;125782;1102;22747;-78
2021/05/07 05:49:57;;;;;;;8.20;4.45;;;;;;;9.98;77.15;97222.04;126071;1101;22740;-78
2021/05/07 05:52:24;;;;;;;7.70;4.50;;;;;;;10.03;77.40;97210.36;126051;1101;24437;-78
2021/05/07 05:54:52;;;;;;;5.63;3.90;;;;;;;10.06;76.78;97223.42;126042;1101;22910;-78
2021/05/07 05:57:20;;;;;;;5.90;3.70;;;;;;;10.12;76.43;97218.79;126040;1101;24293;-78
2021/05/07 05:59:51;;;;;;;4.75;3.65;;;;;;;10.17;75.95;97224.23;125889;1101;22750;-78
2021/05/07 06:02:19;;;;;;;4.45;3.30;;;;;;;10.22;76.01;97224.23;125803;1102;22768;-78
2021/05/07 06:04:46;;;;;;;6.03;3.83;;;;;;;10.32;75.68;97234.30;125814;1101;22990;-78
2021/05/07 06:07:13;;;;;;;7.80;4.10;;;;;;;10.42;76.35;97235.11;126085;1101;22722;-78
2021/05/07 06:09:40;;;;;;;4.00;3.23;;;;;;;10.55;75.51;97227.47;126072;1101;22790;-78
2021/05/07 06:12:08;;;;;;;4.27;3.20;;;;;;;10.67;75.19;97236.16;125868;1103;22910;-78
2021/05/07 06:14:35;;;;;;;4.05;3.50;;;;;;;10.77;74.94;97240.78;126159;1101;22761;-78
2021/05/07 06:17:04;;;;;;;5.88;3.70;;;;;;;10.89;73.90;97240.45;126116;1096;26216;-78
2021/05/07 06:19:31;;;;;;;6.50;3.90;;;;;;;10.97;73.88;97243.42;125819;1101;22925;-78
2021/05/07 06:21:58;;;;;;;5.67;3.43;;;;;;;11.07;73.47;97239.86;126278;1101;22910;-78
2021/05/07 06:24:25;;;;;;;6.67;3.93;;;;;;;11.14;72.88;97243.10;126015;1095;27250;-78
2021/05/07 06:26:52;;;;;;;8.00;4.10;;;;;;;11.21;72.60;97250.98;126164;1101;22809;-78
2021/05/07 06:29:19;;;;;;;8.20;3.20;;;;;;;11.29;71.59;97252.30;125906;1101;22740;-78
2021/05/07 06:31:47;;;;;;;6.70;3.60;;;;;;;11.40;71.95;97251.98;126022;1095;27287;-78
2021/05/07 06:34:14;;;;;;;7.45;3.10;;;;;;;11.53;72.01;97256.00;125939;1101;23032;-78
2021/05/07 06:36:41;;;;;;;6.60;3.50;;;;;;;11.66;71.70;97249.11;125970;1101;24566;-78
2021/05/07 06:39:08;;;;;;;9.50;3.73;;;;;;;11.81;71.09;97247.38;126370;1096;26356;-78
2021/05/07 06:41:35;;;;;;;7.50;3.45;;;;;;;11.92;71.36;97238.88;126221;1101;22803;-78
2021/05/07 06:44:04;;;;;;;7.60;3.35;;;;;;;12.09;70.81;97238.50;125905;1101;22893;-78
2021/05/07 06:46:31;;;;;;;7.63;2.88;;;;;;;12.21;69.62;97242.77;126052;1101;22768;-78
2021/05/07 06:48:59;;;;;;;4.50;2.30;;;;;;;12.29;66.74;97221.13;126060;1102;22834;-78
2021/05/07 06:51:29;;;;;;;3.00;1.80;;;;;;;12.43;67.44;97224.02;126087;1102;22762;-78
2021/05/07 06:53:56;;;;;;;4.00;1.60;;;;;;;12.57;66.00;97228.78;125951;1101;22821;-78
2021/05/07 06:56:24;;;;;;;2.33;1.90;;;;;;;12.65;66.32;97231.70;126139;1101;22769;-78
2021/05/07 06:58:51;;;;;;;5.70;2.13;;;;;;;12.65;66.22;97241.83;126001;1102;22785;-78
2021/05/07 07:01:18;;;;;;;2.40;1.45;;;;;;;12.61;65.48;97241.59;125996;1096;22748;-78
2021/05/07 07:03:45;;;;;;;2.85;1.60;;;;;;;12.54;66.26;97236.45;126240;1096;25867;-78
2021/05/07 07:06:12;;;;;;;4.30;1.70;;;;;;;12.53;65.64;97228.55;125962;1102;22818;-78
2021/05/07 07:08:39;;;;;;;2.80;1.75;;;;;;;12.60;66.15;97237.21;125910;1101;22837;-78
2021/05/07 07:11:06;;;;;;;3.70;1.80;;;;;;;12.63;65.94;97231.18;126145;1096;27186;-78
2021/05/07 07:13:34;;;;;;;3.00;1.70;;;;;;;12.62;64.99;97239.66;125945;1101;22842;-78
2021/05/07 07:16:01;;;;;;;2.70;1.25;;;;;;;12.60;65.23;97231.75;125902;1101;22803;-78
2021/05/07 07:18:28;;;;;;;3.80;1.30;;;;;;;12.57;66.57;97229.62;126245;1101;22728;-78
2021/05/07 07:20:55;;;;;;;2.95;1.20;;;;;;;12.58;65.26;97231.23;126182;1101;22799;-78
2021/05/07 07:23:22;;;;;;;3.85;1.80;;;;;;;12.60;65.15;97236.41;126174;1096;26207;-78
2021/05/07 07:25:49;;;;;;;5.25;1.80;;;;;;;12.61;65.20;97238.05;126043;1096;26206;-78
2021/05/07 07:28:19;;;;;;;3.20;1.20;;;;;;;12.64;64.73;97227.36;125915;1103;22822;-78
2021/05/07 07:30:47;;;;;;;2.05;1.30;;;;;;;12.75;65.64;97236.27;126234;1101;22829;-78
2021/05/07 07:33:14;;;;;;;3.70;2.00;;;;;;;12.84;64.68;97228.25;126230;1096;23763;-78
2021/05/07 07:35:41;;;;;;;3.40;1.35;;;;;;;12.95;64.28;97223.48;125908;1101;22845;-78
2021/05/07 07:38:08;;;;;;;2.85;1.60;;;;;;;13.04;64.67;97222.53;126005;1101;23528;-78
2021/05/07 07:40:35;;;;;;;3.45;1.80;;;;;;;13.19;64.69;97229.75;126228;1101;22767;-78
2021/05/07 07:43:03;;;;;;;2.80;1.55;;;;;;;13.35;64.29;97226.83;126221;1095;26241;-78
2021/05/07 07:45:30;;;;;;;3.60;1.70;;;;;;;13.47;63.71;97221.75;126234;1101;22910;-78
2021/05/07 07:47:57;;;;;;;3.30;1.60;;;;;;;13.55;61.38;97223.84;126058;1096;22748;-78
2021/05/07 07:50:24;;;;;;;2.10;1.25;;;;;;;13.63;61.56;97217.72;125903;1096;25989;-78
2021/05/07 07:52:52;;;;;;;1.75;1.40;;;;;;;13.78;61.35;97221.33;126216;1096;26293;-78
2021/05/07 07:55:19;;;;;;;2.25;1.00;;;;;;;13.88;61.05;97210.21;126209;1101;22766;-78
2021/05/07 07:57:46;;;;;;;2.23;1.27;;;;;;;14.05;60.58;97213.23;125820;1102;24460;-78
2021/05/07 08:00:14;;;;;;;1.65;1.25;;;;;;;14.19;60.21;97216.02;125898;1097;26264;-78
2021/05/07 08:02:44;;;;;;;1.95;1.33;;;;;;;14.31;56.88;97225.71;126106;1101;22917;-78
2021/05/07 08:05:13;;;;;;;3.10;1.55;;;;;;;14.33;57.15;97220.74;126079;1101;22926;-78
2021/05/07 08:07:40;;;;;;;2.50;1.50;;;;;;;14.28;56.75;97223.56;126042;1101;23205;-78
2021/05/07 08:10:09;;;;;;;2.40;1.60;;;;;;;14.33;58.07;97239.91;125811;1101;22770;-78
2021/05/07 08:12:36;;;;;;;2.43;1.25;;;;;;;14.33;57.21;97248.13;125969;1096;23971;-78
2021/05/07 08:15:04;;;;;;;2.10;1.35;;;;;;;14.31;57.24;97262.12;126122;1101;22829;-78
2021/05/07 08:17:32;;;;;;;1.40;1.20;;;;;;;14.23;55.57;97258.11;125805;1102;24425;-78
2021/05/07 08:19:59;;;;;;;1.30;0.95;;;;;;;14.13;56.63;97252.82;126027;1097;27310;-78
2021/05/07 08:22:27;;;;;;;3.10;1.10;;;;;;;14.10;56.89;97258.08;125785;1101;24553;-78
2021/05/07 08:24:54;;;;;;;3.95;1.25;;;;;;;14.09;56.04;97257.24;125814;1103;24504;-78
2021/05/07 08:27:22;;;;;;;1.40;1.00;;;;;;;14.15;56.88;97252.53;125871;1097;22809;-78
2021/05/07 08:29:49;;;;;;;4.95;1.90;;;;;;;14.29;56.12;97255.30;126120;1101;24386;-78
2021/05/07 08:32:17;;;;;;;2.30;1.00;;;;;;;14.42;55.61;97270.98;126052;1101;24024;-78
2021/05/07 08:34:45;;;;;;;2.65;1.30;;;;;;;14.59;55.35;97273.20;125813;1101;22977;-78
2021/05/07 08:37:13;;;;;;;1.67;1.07;;;;;;;14.80;55.54;97268.98;126292;1101;22770;-78
2021/05/07 08:39:40;;;;;;;3.80;1.00;;;;;;;15.03;53.11;97257.32;126515;1101;24386;-78
2021/05/07 08:42:10;;;;;;;1.30;1.00;;;;;;;15.17;55.14;97263.62;126245;1102;22747;-78
2021/05/07 08:44:38;;;;;;;1.67;1.20;;;;;;;15.21;54.93;97256.43;126099;1101;22743;-79
2021/05/07 08:47:07;;;;;;;1.33;1.15;;;;;;;15.22;54.43;97255.30;126366;1097;22775;-79
2021/05/07 08:49:34;;;;;;;1.30;0.90;;;;;;;15.17;52.83;97263.62;126207;1096;22919;-79
2021/05/07 08:52:01;;;;;;;1.87;1.07;;;;;;;15.23;52.50;97256.94;126452;1101;23570;-78
2021/05/07 08:54:29;;;;;;;1.27;0.97;;;;;;;15.28;53.81;97256.83;126021;1096;27677;-76
2021/05/07 08:56:57;;;;;;;1.80;1.23;;;;;;;15.31;53.50;97255.39;126245;1097;22750;-77
2021/05/07 08:59:27;;;;;;;1.70;1.10;;;;;;;15.16;52.47;97254.59;126303;1101;22761;-76
2021/05/07 09:01:54;;;;;;;2.17;1.07;;;;;;;15.07;53.07;97250.10;126131;1102;22878;-78
2021/05/07 09:04:22;;;;;;;1.67;0.83;;;;;;;14.90;53.28;97254.27;126249;1101;22738;-78
2021/05/07 09:06:52;;;;;;;3.50;1.20;;;;;;;14.85;53.52;97257.09;126299;1101;24562;-78
2021/05/07 09:09:24;;;;;;;3.95;1.40;;;;;;;14.97;52.31;97256.61;126420;1096;26322;-77
2021/05/07 09:11:55;;;;;;;1.53;1.00;;;;;;;15.09;51.31;97256.12;126390;1096;26197;-78
2021/05/07 09:14:25;;;;;;;2.37;1.20;;;;;;;15.29;51.76;97268.61;125837;1102;22904;-78
2021/05/07 09:16:55;;;;;;;1.18;0.95;;;;;;;15.42;50.95;97281.48;126224;1101;23142;-78
2021/05/07 09:19:33;;;;;;;1.00;0.90;;;;;;;15.34;50.62;97285.77;126093;1101;22728;-78
2021/05/07 09:22:01;;;;;;;1.25;0.80;;;;;;;15.30;50.29;97300.42;126062;1096;26356;-78
2021/05/07 09:24:40;;;;;;;2.15;1.00;;;;;;;15.42;51.24;97292.47;126089;1101;22751;-78
2021/05/07 09:27:23;;;;;;;1.65;1.10;;;;;;;15.55;51.18;97285.36;126120;1096;22734;-78
2021/05/07 09:29:50;;;;;;;3.10;1.20;;;;;;;15.48;50.52;97276.73;125975;1102;22755;-78
2021/05/07 09:32:34;;;;;;;1.17;0.83;;;;;;;15.53;51.41;97271.14;126166;1101;22730;-78
2021/05/07 09:35:17;;;;;;;1.77;0.97;;;;;;;15.67;51.31;97269.19;126149;1101;22752;-78
2021/05/07 09:37:45;;;;;;;1.83;1.33;;;;;;;15.90;52.08;97267.34;126089;1101;24540;-78
2021/05/07 09:40:21;;;;;;;4.00;1.28;;;;;;;16.21;52.21;97271.31;126110;1096;25865;-78
2021/05/07 09:42:48;;;;;;;1.27;0.90;;;;;;;16.38;49.68;97265.95;126097;1102;22737;-78
2021/05/07 09:45:24;;;;;;;3.75;0.70;;;;;;;16.40;49.00;97285.68;126023;1101;22727;-78
2021/05/07 09:47:59;;;;;;;3.30;0.80;;;;;;;16.20;47.42;97284.24;125842;1101;22847;-78
2021/05/07 09:50:39;;;;;;;0.80;0.63;;;;;;;15.98;48.29;97300.67;126134;1101;22738;-78
2021/05/07 09:53:16;;;;;;;0.88;0.70;;;;;;;15.75;47.92;97298.67;125924;1101;22868;-78
2021/05/07 09:55:45;;;;;;;0.80;0.60;;;;;;;15.51;48.18;97292.56;126185;1101;22752;-78
2021/05/07 09:58:12;;;;;;;0.88;0.83;;;;;;;15.37;47.45;97295.34;126220;1097;27110;-78
2021/05/07 10:00:40;;;;;;;1.80;0.83;;;;;;;15.31;48.33;97308.31;126204;1101;22904;-78
2021/05/07 10:03:08;;;;;;;1.10;0.77;;;;;;;15.32;48.57;97314.64;126204;1097;27137;-79
2021/05/07 10:05:44;;;;;;;1.05;0.90;;;;;;;15.55;46.46;97304.58;125881;1101;22734;-78
2021/05/07 10:08:11;;;;;;;0.70;0.67;;;;;;;15.81;45.28;97298.56;126153;1101;22789;-78
2021/05/07 10:10:44;;;;;;;1.57;0.60;;;;;;;16.10;45.02;97295.46;126111;1101;22860;-78
2021/05/07 10:13:23;;;;;;;0.75;0.60;;;;;;;16.20;45.26;97292.48;126128;1096;26232;-78
2021/05/07 10:16:00;;;;;;;;;;;;;;;16.25;44.83;97299.77;126146;1101;22755;-78
2021/05/07 10:18:27;;;;;;;1.30;0.80;;;;;;;16.51;44.94;97287.05;126147;1101;21458;-78
2021/05/07 10:21:01;;;;;;;2.00;1.03;;;;;;;16.71;45.65;97290.41;126071;1097;27142;-78
2021/05/07 10:23:30;;;;;;;1.30;1.00;;;;;;;16.79;43.80;97281.41;126100;1101;22738;-79
2021/05/07 10:25:59;;;;;;;1.58;1.13;;;;;;;16.77;44.18;97286.42;125821;1101;23537;-78
2021/05/07 10:28:29;;;;;;;2.50;0.83;;;;;;;16.73;44.71;97284.59;126328;1101;22788;-78
2021/05/07 10:31:09;;;;;;;2.08;0.70;;;;;;;16.77;42.66;97294.66;126226;1096;26994;-79
2021/05/07 10:33:37;;;;;;;2.10;0.40;;;;;;;16.81;41.75;97290.15;126105;1101;22813;-79
2021/05/07 10:36:05;;;;;;;3.15;0.90;;;;;;;16.84;40.99;97305.26;126486;1096;22765;-78
2021/05/07 10:38:32;;;;;;;1.37;0.50;;;;;;;16.88;41.25;97281.49;126158;1095;26213;-78
2021/05/07 10:41:10;;;;;;;4.90;0.70;;;;;;;16.96;42.00;97280.70;126142;1102;22750;-79
2021/05/07 10:43:45;;;;;;;0.53;0.50;;;;;;;17.12;42.52;97283.86;126196;1101;22764;-78
2021/05/07 10:46:26;;;;;;;1.08;0.40;;;;;;;17.35;41.84;97284.63;126389;1101;22758;-78
2021/05/07 10:48:55;;;;;;;0.97;0.50;;;;;;;17.61;42.75;97286.64;125936;1102;22833;-78
2021/05/07 10:51:23;;;;;;;;;;;;;;;17.82;40.84;97290.41;125875;1096;25822;-78
2021/05/07 10:53:50;;;;;;;1.50;0.40;;;;;;;17.88;39.98;97291.09;126126;1101;21461;-78
2021/05/07 10:56:25;;;;;;;1.10;0.60;;;;;;;17.90;41.96;97304.55;125813;1103;22735;-78
2021/05/07 10:58:53;;;;;;;1.28;0.78;;;;;;;17.13;44.76;97303.95;126113;1101;22825;-78
2021/05/07 11:01:20;;;;;;;1.65;0.78;;;;;;;16.28;46.73;97327.44;125813;1101;22764;-78
2021/05/07 11:04:05;;;;;;;1.63;0.80;;;;;;;15.90;49.91;97311.27;126064;1096;22760;-78
2021/05/07 11:06:44;;;;;;;1.55;0.85;;;;;;;15.53;50.54;97323.28;126043;1101;22794;-78
2021/05/07 11:09:13;;;;;;;3.08;0.88;;;;;;;15.27;49.96;97325.70;126107;1101;24607;-78
2021/05/07 11:11:41;;;;;;;1.28;1.03;;;;;;;15.01;50.50;97326.16;125899;1101;22751;-78
2021/05/07 11:14:16;;;;;;;4.57;1.17;;;;;;;14.82;52.66;97350.91;125804;1102;22765;-78
2021/05/07 11:16:46;;;;;;;4.07;1.33;;;;;;;14.65;53.24;97356.13;126180;1101;24426;-78
2021/05/07 11:19:29;;;;;;;;;;;;;;;14.51;54.81;97372.47;126171;1097;27205;-78
2021/05/07 11:22:05;;;;;;;3.23;1.30;;;;;;;14.60;55.71;97360.55;125905;1101;24192;-78
2021/05/07 11:24:35;;;;;;;4.40;1.50;;;;;;;14.68;55.70;97358.24;126058;1096;26210;-78
2021/05/07 11:27:12;;;;;;;;;;;;;;;14.41;55.86;97354.25;125934;1101;22744;-78
2021/05/07 11:29:40;;;;;;;2.60;1.10;;;;;;;14.41;57.33;97351.51;125836;1102;24198;-78
2021/05/07 11:32:16;;;;;;;2.70;1.40;;;;;;;14.70;57.72;97353.30;125818;1102;22748;-78
2021/05/07 11:34:51;;;;;;;3.40;1.43;;;;;;;14.94;55.62;97333.97;125880;1096;22923;-78
2021/05/07 11:37:18;;;;;;;0.85;0.85;;;;;;;15.28;52.90;97328.15;126144;1096;25880;-78
2021/05/07 11:40:01;;;;;;;1.93;1.10;;;;;;;15.14;53.18;97314.41;126151;1096;27154;-78